Time;durP1;ratioP1;P1;durP2;ratioP2;P2;SDS_P1;SDS_P2;PMS_P1;PMS_P2;Temp;Humidity;BMP_temperature;BMP_pressure;BME280_temperature;BME280_humidity;BME280_pressure;Samples;Min_cycle;Max_cycle;Signal;HPM_P1;HPM_P2
2022/12/31 00:00:50;;;;;;;50.20;28.95;;;;;;;;;;2106038;28;20048;-46
2022/12/31 00:01:51;;;;;;;49.42;29.15;;;;;;;;;;2105851;28;20464;-47
2022/12/31 00:02:52;;;;;;;56.42;33.25;;;;;;;;;;2105938;28;20050;-46
2022/12/31 00:03:54;;;;;;;56.83;33.45;;;;;;;;;;2105950;28;20496;-46
2022/12/31 00:04:54;;;;;;;51.90;32.53;;;;;;;;;;2105884;28;20052;-47
2022/12/31 00:05:56;;;;;;;55.27;33.33;;;;;;;;;;2105968;28;20036;-47
2022/12/31 00:06:57;;;;;;;59.63;34.70;;;;;;;;;;2106008;28;20400;-47
2022/12/31 00:07:58;;;;;;;53.43;28.97;;;;;;;;;;2105741;28;20064;-47
2022/12/31 00:09:00;;;;;;;52.95;31.35;;;;;;;;;;2105973;28;20052;-47
2022/12/31 00:10:01;;;;;;;51.53;32.17;;;;;;;;;;2105659;28;20044;-47
2022/12/31 00:11:03;;;;;;;52.28;30.98;;;;;;;;;;2105837;28;20048;-47
2022/12/31 00:12:04;;;;;;;55.85;33.67;;;;;;;;;;2105879;28;20106;-45
2022/12/31 00:13:06;;;;;;;54.03;32.70;;;;;;;;;;2105980;28;20036;-45
2022/12/31 00:14:07;;;;;;;54.38;33.13;;;;;;;;;;2112340;28;20435;-45
2022/12/31 00:15:08;;;;;;;50.17;28.67;;;;;;;;;;2114365;28;20043;-45
2022/12/31 00:16:10;;;;;;;52.17;32.78;;;;;;;;;;2114501;28;20051;-46
2022/12/31 00:17:13;;;;;;;51.85;32.65;;;;;;;;;;2114056;28;20262;-46
2022/12/31 00:18:14;;;;;;;53.70;31.20;;;;;;;;;;2114442;28;20539;-45
2022/12/31 00:19:15;;;;;;;52.83;33.05;;;;;;;;;;2114257;28;20371;-45
2022/12/31 00:20:16;;;;;;;58.83;33.67;;;;;;;;;;2114148;28;20082;-45
2022/12/31 00:21:18;;;;;;;46.05;27.45;;;;;;;;;;2114183;28;20071;-45
2022/12/31 00:22:19;;;;;;;59.40;33.42;;;;;;;;;;2114285;28;20055;-45
2022/12/31 00:23:20;;;;;;;50.45;29.27;;;;;;;;;;2114093;28;20051;-45
2022/12/31 00:24:21;;;;;;;54.72;31.58;;;;;;;;;;2114084;28;20050;-45
2022/12/31 00:25:22;;;;;;;46.88;27.55;;;;;;;;;;2114220;28;20058;-46
2022/12/31 00:26:24;;;;;;;47.83;30.88;;;;;;;;;;2114274;28;20076;-45
2022/12/31 00:27:25;;;;;;;49.60;30.33;;;;;;;;;;2114140;28;20522;-44
2022/12/31 00:28:26;;;;;;;48.70;30.40;;;;;;;;;;2114155;28;20043;-44
2022/12/31 00:29:27;;;;;;;53.35;31.85;;;;;;;;;;2113995;28;20488;-45
2022/12/31 00:30:28;;;;;;;54.50;32.13;;;;;;;;;;2114153;28;20123;-44
2022/12/31 00:31:30;;;;;;;53.67;31.35;;;;;;;;;;2114163;28;20051;-44
2022/12/31 00:32:31;;;;;;;58.10;33.05;;;;;;;;;;2114222;28;20446;-44
2022/12/31 00:33:32;;;;;;;53.67;32.05;;;;;;;;;;2114256;28;20048;-45
2022/12/31 00:34:33;;;;;;;55.05;32.85;;;;;;;;;;2114069;28;20130;-44
2022/12/31 00:35:35;;;;;;;57.13;33.65;;;;;;;;;;2114278;28;20511;-45
2022/12/31 00:36:37;;;;;;;56.88;33.30;;;;;;;;;;2114345;28;20047;-45
2022/12/31 00:37:37;;;;;;;48.58;28.55;;;;;;;;;;2114224;28;20043;-47
2022/12/31 00:38:41;;;;;;;55.72;32.72;;;;;;;;;;2114473;28;20076;-45
2022/12/31 00:39:41;;;;;;;52.53;31.17;;;;;;;;;;2112326;28;20404;-46
2022/12/31 00:40:42;;;;;;;56.70;32.37;;;;;;;;;;2105568;28;20087;-46
2022/12/31 00:41:44;;;;;;;58.85;31.23;;;;;;;;;;2105723;28;20051;-46
2022/12/31 00:42:45;;;;;;;55.03;33.28;;;;;;;;;;2105772;28;20051;-46
2022/12/31 00:43:46;;;;;;;51.17;27.30;;;;;;;;;;2105634;28;20137;-46
2022/12/31 00:44:48;;;;;;;55.10;32.17;;;;;;;;;;2105590;28;20116;-45
2022/12/31 00:45:48;;;;;;;53.25;28.70;;;;;;;;;;2105771;28;20047;-45
2022/12/31 00:46:50;;;;;;;47.58;29.02;;;;;;;;;;2105874;28;20040;-45
2022/12/31 00:47:50;;;;;;;47.72;27.58;;;;;;;;;;2105624;28;20040;-45
2022/12/31 00:48:52;;;;;;;51.03;31.23;;;;;;;;;;2105684;28;20098;-45
2022/12/31 00:49:53;;;;;;;48.53;30.65;;;;;;;;;;2105581;28;20044;-45
2022/12/31 00:50:54;;;;;;;48.13;30.17;;;;;;;;;;2105787;28;20576;-45
2022/12/31 00:51:55;;;;;;;47.67;28.95;;;;;;;;;;2107184;28;20044;-46
2022/12/31 00:52:57;;;;;;;50.60;30.23;;;;;;;;;;2107041;28;20445;-46
2022/12/31 00:53:58;;;;;;;57.95;32.58;;;;;;;;;;2107088;28;20048;-46
2022/12/31 00:54:59;;;;;;;74.68;36.47;;;;;;;;;;2106969;28;20048;-45
2022/12/31 00:56:00;;;;;;;138.00;61.80;;;;;;;;;;2107123;28;20051;-45
2022/12/31 00:57:02;;;;;;;236.65;95.68;;;;;;;;;;2107062;28;20055;-46
2022/12/31 00:58:02;;;;;;;342.05;119.13;;;;;;;;;;2107151;28;20040;-45
2022/12/31 00:59:04;;;;;;;370.13;131.63;;;;;;;;;;2106967;28;20143;-45
2022/12/31 01:00:06;;;;;;;287.75;109.40;;;;;;;;;;2106867;28;20044;-45
2022/12/31 01:01:08;;;;;;;266.38;97.18;;;;;;;;;;2107016;28;20504;-45
2022/12/31 01:02:09;;;;;;;;;;;;;;;;;;2107401;28;20048;-45
2022/12/31 01:03:10;;;;;;;153.32;54.40;;;;;;;;;;2107092;28;19924;-45
2022/12/31 01:04:12;;;;;;;122.90;52.25;;;;;;;;;;2107147;28;20040;-45
2022/12/31 01:05:13;;;;;;;102.57;46.20;;;;;;;;;;2106992;28;20051;-45
2022/12/31 01:06:15;;;;;;;92.23;42.03;;;;;;;;;;2107167;28;20051;-45
2022/12/31 01:07:16;;;;;;;103.60;46.53;;;;;;;;;;2107015;28;20052;-45
2022/12/31 01:08:17;;;;;;;120.57;50.95;;;;;;;;;;2106954;28;20079;-45
2022/12/31 01:09:18;;;;;;;92.78;44.40;;;;;;;;;;2106972;28;20048;-44
2022/12/31 01:11:17;;;;;;;95.20;36.00;;;;;;;;;;2113324;28;20099;-47
2022/12/31 01:11:40;;;;;;;318.60;124.93;;;;;;;;;;2115487;28;20070;-45
2022/12/31 01:12:42;;;;;;;420.13;145.90;;;;;;;;;;2115570;28;20043;-47
2022/12/31 01:13:43;;;;;;;298.42;116.65;;;;;;;;;;2115339;28;20044;-45
2022/12/31 01:14:44;;;;;;;299.33;109.63;;;;;;;;;;2115627;28;20058;-44
2022/12/31 01:15:45;;;;;;;308.80;120.18;;;;;;;;;;2115277;28;20047;-43
2022/12/31 01:16:47;;;;;;;357.50;141.82;;;;;;;;;;2115492;28;20492;-43
2022/12/31 01:17:47;;;;;;;336.27;130.95;;;;;;;;;;2115274;28;20097;-43
2022/12/31 01:18:49;;;;;;;274.23;102.30;;;;;;;;;;2115479;28;20085;-45
2022/12/31 01:19:50;;;;;;;261.17;111.80;;;;;;;;;;2115235;28;20051;-44
2022/12/31 01:20:51;;;;;;;141.60;64.82;;;;;;;;;;2115214;28;20051;-44
2022/12/31 01:21:53;;;;;;;106.07;51.30;;;;;;;;;;2115450;28;20122;-44
2022/12/31 01:22:54;;;;;;;99.43;48.28;;;;;;;;;;2115526;28;20047;-44
2022/12/31 01:23:56;;;;;;;98.57;48.38;;;;;;;;;;2115287;28;20134;-44
2022/12/31 01:24:57;;;;;;;84.75;40.83;;;;;;;;;;2115242;28;20047;-44
2022/12/31 01:25:59;;;;;;;72.15;35.35;;;;;;;;;;2115238;28;20055;-44
2022/12/31 01:27:00;;;;;;;93.45;45.00;;;;;;;;;;2115168;28;20072;-43
2022/12/31 01:28:02;;;;;;;69.60;37.95;;;;;;;;;;2115390;28;20040;-43
2022/12/31 01:29:03;;;;;;;69.10;38.25;;;;;;;;;;2115283;28;20183;-43
2022/12/31 01:30:05;;;;;;;66.57;35.90;;;;;;;;;;2115323;28;20051;-45
2022/12/31 01:31:06;;;;;;;72.38;39.63;;;;;;;;;;2115360;28;20044;-44
2022/12/31 01:32:08;;;;;;;;;;;;;;;;;;2115827;28;20071;-44
2022/12/31 01:33:08;;;;;;;64.55;31.73;;;;;;;;;;2115231;28;20265;-44
2022/12/31 01:34:10;;;;;;;63.00;35.53;;;;;;;;;;2115312;28;20062;-44
2022/12/31 01:35:10;;;;;;;55.75;34.15;;;;;;;;;;2115165;28;20426;-43
2022/12/31 01:36:13;;;;;;;49.30;25.33;;;;;;;;;;2115272;28;20043;-44
2022/12/31 01:37:14;;;;;;;61.60;35.72;;;;;;;;;;2115319;28;20043;-43
2022/12/31 01:38:15;;;;;;;71.77;37.60;;;;;;;;;;2115252;28;20295;-43
2022/12/31 01:39:16;;;;;;;70.43;40.50;;;;;;;;;;2115276;28;20078;-43
2022/12/31 01:40:17;;;;;;;65.35;39.72;;;;;;;;;;2108586;28;20067;-44
2022/12/31 01:41:19;;;;;;;71.75;43.00;;;;;;;;;;2106905;28;20477;-43
2022/12/31 01:42:20;;;;;;;;;;;;;;;;;;2107234;28;20496;-43
2022/12/31 01:43:22;;;;;;;48.70;24.27;;;;;;;;;;2107124;28;19920;-45
2022/12/31 01:44:41;;;;;;;58.65;36.13;;;;;;;;;;2106650;28;20489;-46
2022/12/31 01:45:43;;;;;;;52.88;30.77;;;;;;;;;;2106940;28;20052;-46
2022/12/31 01:46:46;;;;;;;64.55;38.22;;;;;;;;;;2107012;28;20052;-45
2022/12/31 01:47:50;;;;;;;63.13;36.13;;;;;;;;;;2106844;28;20048;-45
2022/12/31 01:48:52;;;;;;;66.93;34.78;;;;;;;;;;2106803;28;20055;-45
2022/12/31 01:49:57;;;;;;;62.05;31.45;;;;;;;;;;2106571;28;20496;-45
2022/12/31 01:50:58;;;;;;;70.57;40.75;;;;;;;;;;2106645;28;20044;-45
2022/12/31 01:52:01;;;;;;;66.95;39.00;;;;;;;;;;2106816;28;20044;-45
2022/12/31 01:53:03;;;;;;;74.32;42.95;;;;;;;;;;2106819;28;20112;-46
2022/12/31 01:54:04;;;;;;;;;;;;;;;;;;2107003;28;20095;-45
2022/12/31 01:55:08;;;;;;;63.30;30.02;;;;;;;;;;2106772;28;20022;-46
2022/12/31 01:56:09;;;;;;;67.88;34.67;;;;;;;;;;2106629;28;20055;-45
2022/12/31 01:57:11;;;;;;;78.60;42.50;;;;;;;;;;2106672;28;20048;-46
2022/12/31 01:58:16;;;;;;;75.30;40.45;;;;;;;;;;2106743;28;20097;-45
2022/12/31 01:59:19;;;;;;;64.35;33.92;;;;;;;;;;2106570;28;20055;-45
2022/12/31 02:00:20;;;;;;;64.35;36.03;;;;;;;;;;2106744;28;20056;-45
2022/12/31 02:01:24;;;;;;;67.43;38.30;;;;;;;;;;2106762;28;20113;-45
2022/12/31 02:02:25;;;;;;;69.07;38.70;;;;;;;;;;2106272;28;20062;-45
2022/12/31 02:03:27;;;;;;;62.35;34.78;;;;;;;;;;2106634;28;20072;-46
2022/12/31 02:04:29;;;;;;;63.10;33.17;;;;;;;;;;2106567;28;20083;-45
2022/12/31 02:05:33;;;;;;;63.17;36.78;;;;;;;;;;2106661;28;20044;-45
2022/12/31 02:06:37;;;;;;;60.55;29.65;;;;;;;;;;2113212;28;20050;-44
2022/12/31 02:07:38;;;;;;;66.93;36.88;;;;;;;;;;2114937;28;20047;-45
2022/12/31 02:08:39;;;;;;;65.65;36.55;;;;;;;;;;2115049;28;20050;-44
2022/12/31 02:09:43;;;;;;;55.15;31.00;;;;;;;;;;2115130;28;20181;-45
2022/12/31 02:10:44;;;;;;;62.83;37.40;;;;;;;;;;2115316;28;20054;-45
2022/12/31 02:11:45;;;;;;;62.75;37.33;;;;;;;;;;2115044;28;20101;-45
2022/12/31 02:12:46;;;;;;;64.25;37.35;;;;;;;;;;2115163;28;20472;-49
2022/12/31 02:13:48;;;;;;;62.13;32.58;;;;;;;;;;2114989;28;20043;-46
2022/12/31 02:14:56;;;;;;;67.38;39.78;;;;;;;;;;2114946;28;20047;-46
2022/12/31 02:16:00;;;;;;;64.63;32.80;;;;;;;;;;2114880;28;20043;-44
2022/12/31 02:17:04;;;;;;;61.40;35.90;;;;;;;;;;2114943;28;20488;-45
2022/12/31 02:18:09;;;;;;;63.00;36.80;;;;;;;;;;2114874;28;20507;-46
2022/12/31 02:19:28;;;;;;;65.63;36.35;;;;;;;;;;2114928;28;20051;-45
2022/12/31 02:20:40;;;;;;;52.90;28.58;;;;;;;;;;2115056;28;20044;-45
2022/12/31 02:21:51;;;;;;;64.20;37.05;;;;;;;;;;2115125;28;20070;-43
2022/12/31 02:23:10;;;;;;;61.53;34.08;;;;;;;;;;2115026;28;20086;-44
2022/12/31 02:24:25;;;;;;;62.10;34.83;;;;;;;;;;2114925;28;20051;-43
2022/12/31 02:25:35;;;;;;;58.85;30.77;;;;;;;;;;2114871;28;20055;-44
2022/12/31 02:26:44;;;;;;;65.07;39.03;;;;;;;;;;2115104;28;20167;-43
2022/12/31 02:27:51;;;;;;;62.75;34.55;;;;;;;;;;2114844;28;20048;-43
2022/12/31 02:29:09;;;;;;;62.10;38.30;;;;;;;;;;2115027;28;20055;-43
2022/12/31 02:30:13;;;;;;;55.55;28.92;;;;;;;;;;2114233;28;20051;-43
2022/12/31 02:31:16;;;;;;;63.30;34.08;;;;;;;;;;2114914;28;20086;-43
2022/12/31 02:32:20;;;;;;;60.83;29.85;;;;;;;;;;2114849;28;20059;-43
2022/12/31 02:33:25;;;;;;;58.78;33.75;;;;;;;;;;2115162;28;20044;-43
2022/12/31 02:34:27;;;;;;;55.70;30.95;;;;;;;;;;2114651;28;20044;-43
2022/12/31 02:35:29;;;;;;;63.55;36.20;;;;;;;;;;2115016;28;20450;-45
2022/12/31 02:36:32;;;;;;;58.00;32.40;;;;;;;;;;2114823;28;20050;-45
2022/12/31 02:37:35;;;;;;;55.33;31.52;;;;;;;;;;2114827;28;20093;-45
2022/12/31 02:38:37;;;;;;;57.47;29.27;;;;;;;;;;2114794;28;20511;-45
2022/12/31 02:39:39;;;;;;;60.45;31.13;;;;;;;;;;2113695;28;20059;-44
2022/12/31 02:40:40;;;;;;;60.75;33.85;;;;;;;;;;2106232;28;20044;-48
2022/12/31 02:41:50;;;;;;;69.75;37.53;;;;;;;;;;2106481;28;20051;-44
2022/12/31 02:42:51;;;;;;;61.25;34.28;;;;;;;;;;2106453;28;20074;-46
2022/12/31 02:43:56;;;;;;;60.15;30.95;;;;;;;;;;2106288;28;20463;-46
2022/12/31 02:44:57;;;;;;;71.25;37.70;;;;;;;;;;2106359;28;20052;-45
2022/12/31 02:46:05;;;;;;;68.15;36.58;;;;;;;;;;2106439;28;20552;-45
2022/12/31 02:47:12;;;;;;;65.50;35.60;;;;;;;;;;2106412;28;20047;-44
2022/12/31 02:48:22;;;;;;;63.85;35.40;;;;;;;;;;2106496;28;20401;-45
2022/12/31 02:49:28;;;;;;;64.50;37.00;;;;;;;;;;2106325;28;20052;-45
2022/12/31 02:50:34;;;;;;;61.10;31.17;;;;;;;;;;2106325;28;20493;-44
2022/12/31 02:51:37;;;;;;;60.03;30.73;;;;;;;;;;2106441;28;20048;-44
2022/12/31 02:52:43;;;;;;;68.15;36.47;;;;;;;;;;2106191;28;20048;-45
2022/12/31 02:53:53;;;;;;;63.33;33.00;;;;;;;;;;2106433;28;20106;-46
2022/12/31 02:54:58;;;;;;;62.88;33.63;;;;;;;;;;2106410;28;20040;-43
2022/12/31 02:56:02;;;;;;;58.17;32.47;;;;;;;;;;2106117;28;20492;-42
2022/12/31 02:57:05;;;;;;;70.25;37.67;;;;;;;;;;2106242;28;20403;-42
2022/12/31 02:58:12;;;;;;;64.70;30.98;;;;;;;;;;2106153;28;20358;-43
2022/12/31 03:02:14;;;;;;;64.75;36.75;;;;;;;;;;2106303;28;20123;-43
2022/12/31 03:03:15;;;;;;;65.13;33.13;;;;;;;;;;2106293;28;20052;-43
2022/12/31 03:04:32;;;;;;;68.53;38.45;;;;;;;;;;2106145;28;20044;-42
2022/12/31 03:05:36;;;;;;;60.78;29.02;;;;;;;;;;2106234;28;20044;-42
2022/12/31 03:06:37;;;;;;;64.38;35.83;;;;;;;;;;2106178;28;20101;-42
2022/12/31 03:07:39;;;;;;;72.23;37.87;;;;;;;;;;2106200;28;20052;-43
2022/12/31 03:09:57;;;;;;;52.22;29.20;;;;;;;;;;2105321;28;20086;-43
2022/12/31 03:10:58;;;;;;;58.60;29.10;;;;;;;;;;2106149;28;20040;-43
2022/12/31 03:13:19;;;;;;;71.53;38.50;;;;;;;;;;2105794;28;20505;-43
2022/12/31 03:14:19;;;;;;;66.32;33.97;;;;;;;;;;2106356;28;20044;-45
2022/12/31 03:15:22;;;;;;;65.23;33.37;;;;;;;;;;2106396;28;20051;-46
2022/12/31 03:16:23;;;;;;;65.35;35.17;;;;;;;;;;2106154;28;20048;-46
2022/12/31 03:17:25;;;;;;;59.97;33.57;;;;;;;;;;2106108;28;20051;-46
2022/12/31 03:22:26;;;;;;;67.03;36.38;;;;;;;;;;2106226;28;20052;-45
2022/12/31 03:22:37;;;;;;;101.93;38.95;;;;;;;;;;2106183;28;20040;-47
2022/12/31 03:23:40;;;;;;;276.95;50.40;;;;;;;;;;2106419;28;20385;-43
2022/12/31 03:26:00;;;;;;;208.57;46.20;;;;;;;;;;2105995;28;20048;-43
2022/12/31 03:27:01;;;;;;;243.68;47.25;;;;;;;;;;2106270;28;20044;-43
2022/12/31 03:28:03;;;;;;;148.30;38.50;;;;;;;;;;2106160;28;20044;-43
2022/12/31 03:29:04;;;;;;;246.90;51.10;;;;;;;;;;2106089;28;20044;-43
2022/12/31 03:30:06;;;;;;;226.30;50.17;;;;;;;;;;2106111;28;20080;-43
2022/12/31 03:31:07;;;;;;;173.35;45.33;;;;;;;;;;2106082;28;20047;-43
2022/12/31 03:32:08;;;;;;;125.03;35.88;;;;;;;;;;2105922;28;20413;-43
2022/12/31 03:33:10;;;;;;;109.23;48.43;;;;;;;;;;2106099;28;20047;-43
2022/12/31 03:34:11;;;;;;;90.57;37.55;;;;;;;;;;2106081;28;20056;-43
2022/12/31 03:35:13;;;;;;;107.97;50.37;;;;;;;;;;2105930;28;20101;-43
2022/12/31 03:36:14;;;;;;;;;;;;;;;;;;2106635;28;20051;-44
2022/12/31 03:37:15;;;;;;;81.90;33.67;;;;;;;;;;2105987;28;19930;-44
2022/12/31 03:38:17;;;;;;;109.03;48.83;;;;;;;;;;2106160;28;20075;-44
2022/12/31 03:39:17;;;;;;;105.57;50.47;;;;;;;;;;2105943;28;20051;-44
2022/12/31 03:40:20;;;;;;;104.03;46.25;;;;;;;;;;2105949;28;20493;-44
2022/12/31 03:41:20;;;;;;;113.05;52.90;;;;;;;;;;2105908;28;20121;-44
2022/12/31 03:42:22;;;;;;;120.27;49.13;;;;;;;;;;2106095;28;20500;-44
2022/12/31 03:43:23;;;;;;;112.15;42.67;;;;;;;;;;2106086;28;20055;-44
2022/12/31 03:44:24;;;;;;;121.72;54.53;;;;;;;;;;2105866;28;20048;-44
2022/12/31 03:45:25;;;;;;;108.38;44.17;;;;;;;;;;2106160;28;20131;-44
2022/12/31 03:46:26;;;;;;;147.32;59.58;;;;;;;;;;2105954;28;20055;-44
2022/12/31 03:47:27;;;;;;;106.00;39.97;;;;;;;;;;2105932;28;20048;-44
2022/12/31 03:48:29;;;;;;;174.80;50.88;;;;;;;;;;2105909;28;20048;-44
2022/12/31 03:49:30;;;;;;;242.35;64.88;;;;;;;;;;2106050;28;20055;-49
2022/12/31 03:50:31;;;;;;;272.80;60.63;;;;;;;;;;2105964;28;20047;-46
2022/12/31 03:51:32;;;;;;;344.52;62.10;;;;;;;;;;2106055;28;20044;-46
2022/12/31 03:52:34;;;;;;;307.10;61.80;;;;;;;;;;2106212;28;20404;-44
2022/12/31 03:53:35;;;;;;;370.15;58.60;;;;;;;;;;2105918;28;20048;-44
2022/12/31 03:54:36;;;;;;;232.52;56.28;;;;;;;;;;2105856;28;20040;-44
2022/12/31 03:55:37;;;;;;;191.90;46.00;;;;;;;;;;2106065;28;20093;-44
2022/12/31 03:56:38;;;;;;;355.98;66.88;;;;;;;;;;2105933;28;20055;-43
2022/12/31 03:57:39;;;;;;;210.93;46.53;;;;;;;;;;2105801;28;20439;-44
2022/12/31 03:58:40;;;;;;;219.98;50.92;;;;;;;;;;2109224;28;20043;-43
2022/12/31 03:59:41;;;;;;;253.45;57.50;;;;;;;;;;2114397;28;20052;-42
2022/12/31 04:00:42;;;;;;;148.95;41.92;;;;;;;;;;2114621;28;20369;-45
2022/12/31 04:01:43;;;;;;;157.57;50.55;;;;;;;;;;2114371;28;20048;-44
2022/12/31 04:02:44;;;;;;;218.63;51.15;;;;;;;;;;2114805;28;20043;-43
2022/12/31 04:03:46;;;;;;;138.90;41.45;;;;;;;;;;2114799;28;20056;-43
2022/12/31 04:04:47;;;;;;;222.25;53.60;;;;;;;;;;2114269;28;20503;-43
2022/12/31 04:05:51;;;;;;;100.95;35.92;;;;;;;;;;2114458;28;20065;-43
2022/12/31 04:06:52;;;;;;;81.20;36.45;;;;;;;;;;2114261;28;20092;-42
2022/12/31 04:07:54;;;;;;;97.97;46.03;;;;;;;;;;2114556;28;20044;-46
2022/12/31 04:08:55;;;;;;;;;;;;;;;;;;2114796;28;20047;-45
2022/12/31 04:09:56;;;;;;;109.10;39.03;;;;;;;;;;2114130;28;19920;-44
2022/12/31 04:10:57;;;;;;;152.25;50.70;;;;;;;;;;2114219;28;20036;-44
2022/12/31 04:11:58;;;;;;;106.85;43.45;;;;;;;;;;2114394;28;20040;-46
2022/12/31 04:13:01;;;;;;;116.63;48.60;;;;;;;;;;2114305;28;20499;-45
2022/12/31 04:14:02;;;;;;;99.97;45.40;;;;;;;;;;2114149;28;20044;-45
2022/12/31 04:15:04;;;;;;;77.40;35.70;;;;;;;;;;2114153;28;20043;-45
2022/12/31 04:16:05;;;;;;;106.55;44.28;;;;;;;;;;2114322;28;20493;-46
2022/12/31 04:17:06;;;;;;;100.97;44.67;;;;;;;;;;2114222;28;20079;-44
2022/12/31 04:18:07;;;;;;;90.60;37.70;;;;;;;;;;2114153;28;20100;-45
2022/12/31 04:19:09;;;;;;;113.93;45.13;;;;;;;;;;2114257;28;20055;-44
2022/12/31 04:20:10;;;;;;;89.50;37.25;;;;;;;;;;2114459;28;20051;-43
2022/12/31 04:21:11;;;;;;;98.53;44.75;;;;;;;;;;2114436;28;20051;-43
2022/12/31 04:22:12;;;;;;;81.47;32.80;;;;;;;;;;2114673;28;20079;-44
2022/12/31 04:23:13;;;;;;;108.05;45.30;;;;;;;;;;2114149;28;20054;-46
2022/12/31 04:24:14;;;;;;;86.10;35.70;;;;;;;;;;2114381;28;20044;-43
2022/12/31 04:25:15;;;;;;;133.88;49.63;;;;;;;;;;2114056;28;20116;-43
2022/12/31 04:26:16;;;;;;;95.28;38.03;;;;;;;;;;2114442;28;20043;-45
2022/12/31 04:27:17;;;;;;;128.25;49.55;;;;;;;;;;2114461;28;20075;-43
2022/12/31 04:28:18;;;;;;;112.07;40.85;;;;;;;;;;2114943;28;20073;-43
2022/12/31 04:29:19;;;;;;;148.85;48.33;;;;;;;;;;2114463;28;20403;-45
2022/12/31 04:30:21;;;;;;;87.80;38.72;;;;;;;;;;2114173;28;20051;-45
2022/12/31 04:31:21;;;;;;;105.13;44.97;;;;;;;;;;2114993;28;20055;-44
2022/12/31 04:32:23;;;;;;;97.30;35.87;;;;;;;;;;2114734;28;20083;-45
2022/12/31 04:33:24;;;;;;;118.10;43.03;;;;;;;;;;2114430;28;20284;-43
2022/12/31 04:34:25;;;;;;;77.15;29.55;;;;;;;;;;2114657;28;20071;-45
2022/12/31 04:35:26;;;;;;;98.38;41.30;;;;;;;;;;2114357;28;20043;-43
2022/12/31 04:36:28;;;;;;;93.57;34.47;;;;;;;;;;2114187;28;20052;-43
2022/12/31 04:37:28;;;;;;;109.05;40.67;;;;;;;;;;2114354;28;20051;-45
2022/12/31 04:38:30;;;;;;;81.20;32.27;;;;;;;;;;2114157;28;20445;-45
2022/12/31 04:39:31;;;;;;;112.80;35.97;;;;;;;;;;2114370;28;20404;-46
2022/12/31 04:40:32;;;;;;;74.40;28.80;;;;;;;;;;2106555;28;20044;-42
2022/12/31 04:41:33;;;;;;;77.60;34.17;;;;;;;;;;2106101;28;20048;-48
2022/12/31 04:42:34;;;;;;;56.08;26.50;;;;;;;;;;2106518;28;20413;-43
2022/12/31 04:43:35;;;;;;;89.18;37.72;;;;;;;;;;2106349;28;20063;-43
2022/12/31 04:44:36;;;;;;;56.37;28.30;;;;;;;;;;2106112;28;20134;-49
2022/12/31 04:45:37;;;;;;;70.22;32.45;;;;;;;;;;2105962;28;20089;-42
2022/12/31 04:46:38;;;;;;;89.07;36.92;;;;;;;;;;2105734;28;20125;-43
2022/12/31 04:47:39;;;;;;;62.63;31.00;;;;;;;;;;2105951;28;20048;-42
2022/12/31 04:48:40;;;;;;;48.07;26.70;;;;;;;;;;2105663;28;20070;-42
2022/12/31 04:49:42;;;;;;;61.03;29.88;;;;;;;;;;2105958;28;20052;-46
2022/12/31 04:50:44;;;;;;;69.18;30.90;;;;;;;;;;2105984;28;20048;-43
2022/12/31 04:51:46;;;;;;;89.57;32.97;;;;;;;;;;2105565;28;20094;-42
2022/12/31 04:52:46;;;;;;;101.43;35.03;;;;;;;;;;2105900;28;20146;-42
2022/12/31 04:53:48;;;;;;;87.87;35.40;;;;;;;;;;2105849;28;20064;-42
2022/12/31 04:54:49;;;;;;;105.30;33.45;;;;;;;;;;2107721;28;20075;-42
2022/12/31 04:55:51;;;;;;;73.47;33.05;;;;;;;;;;2114682;28;20055;-44
2022/12/31 04:56:52;;;;;;;70.18;37.38;;;;;;;;;;2114349;28;20054;-44
2022/12/31 04:57:53;;;;;;;66.70;26.50;;;;;;;;;;2114746;28;20075;-45
2022/12/31 04:58:54;;;;;;;91.57;39.38;;;;;;;;;;2114734;28;20059;-45
2022/12/31 04:59:55;;;;;;;84.72;32.83;;;;;;;;;;2114069;28;20061;-43
2022/12/31 05:00:56;;;;;;;89.28;39.05;;;;;;;;;;2113991;28;20046;-46
2022/12/31 05:01:57;;;;;;;54.72;26.85;;;;;;;;;;2113957;28;20507;-46
2022/12/31 05:02:59;;;;;;;79.75;38.83;;;;;;;;;;2113933;28;20043;-46
2022/12/31 05:04:00;;;;;;;64.82;32.55;;;;;;;;;;2114251;28;20048;-46
2022/12/31 05:05:01;;;;;;;91.63;40.63;;;;;;;;;;2114905;28;20101;-43
2022/12/31 05:06:04;;;;;;;67.15;33.42;;;;;;;;;;2114012;28;20458;-49
2022/12/31 05:07:05;;;;;;;94.18;39.50;;;;;;;;;;2114130;28;20105;-46
2022/12/31 05:08:06;;;;;;;64.75;29.65;;;;;;;;;;2114484;28;20047;-45
2022/12/31 05:09:07;;;;;;;120.37;42.77;;;;;;;;;;2114100;28;20044;-43
2022/12/31 05:10:08;;;;;;;79.28;32.17;;;;;;;;;;2113976;28;20048;-43
2022/12/31 05:11:09;;;;;;;74.13;33.17;;;;;;;;;;2114742;28;20096;-43
2022/12/31 05:12:10;;;;;;;88.03;40.70;;;;;;;;;;2114083;28;20284;-47
2022/12/31 05:13:11;;;;;;;76.63;34.47;;;;;;;;;;2114051;28;20442;-46
2022/12/31 05:14:12;;;;;;;74.45;34.20;;;;;;;;;;2113784;28;20044;-46
2022/12/31 05:15:13;;;;;;;76.57;35.13;;;;;;;;;;2114543;28;20055;-43
2022/12/31 05:16:15;;;;;;;87.87;36.80;;;;;;;;;;2114410;28;20493;-46
2022/12/31 05:17:16;;;;;;;89.95;37.70;;;;;;;;;;2114210;28;20071;-43
2022/12/31 05:18:17;;;;;;;96.70;41.33;;;;;;;;;;2113918;28;20138;-43
2022/12/31 05:19:19;;;;;;;62.38;31.27;;;;;;;;;;2113936;28;20044;-43
2022/12/31 05:20:20;;;;;;;71.22;38.55;;;;;;;;;;2113868;28;20499;-43
2022/12/31 05:21:22;;;;;;;72.43;35.42;;;;;;;;;;2114187;28;20052;-43
2022/12/31 05:22:28;;;;;;;70.15;32.88;;;;;;;;;;2114241;28;20048;-46
2022/12/31 05:23:29;;;;;;;87.60;39.75;;;;;;;;;;2114012;28;20043;-49
2022/12/31 05:24:30;;;;;;;77.63;35.88;;;;;;;;;;2114099;28;20043;-43
2022/12/31 05:25:31;;;;;;;99.13;36.53;;;;;;;;;;2113836;28;20519;-43
2022/12/31 05:26:32;;;;;;;87.15;38.40;;;;;;;;;;2114189;28;20047;-45
2022/12/31 05:27:33;;;;;;;83.80;42.17;;;;;;;;;;2113843;28;20474;-47
2022/12/31 05:28:34;;;;;;;71.75;32.25;;;;;;;;;;2114139;28;20051;-43
2022/12/31 05:29:36;;;;;;;73.13;34.93;;;;;;;;;;2113763;28;20052;-43
2022/12/31 05:30:36;;;;;;;113.03;45.85;;;;;;;;;;2113884;28;20480;-42
2022/12/31 05:31:38;;;;;;;102.65;39.45;;;;;;;;;;2113910;28;20183;-43
2022/12/31 05:32:39;;;;;;;97.72;44.97;;;;;;;;;;2113883;28;20074;-42
2022/12/31 05:33:40;;;;;;;113.93;45.03;;;;;;;;;;2113894;28;20051;-43
2022/12/31 05:34:41;;;;;;;126.68;44.92;;;;;;;;;;2113719;28;20688;-42
2022/12/31 05:35:43;;;;;;;111.30;48.30;;;;;;;;;;2113831;28;20048;-43
2022/12/31 05:36:44;;;;;;;96.65;39.60;;;;;;;;;;2113692;28;20100;-43
2022/12/31 05:37:45;;;;;;;97.97;42.40;;;;;;;;;;2115164;28;20044;-43
2022/12/31 05:38:46;;;;;;;128.88;44.25;;;;;;;;;;2115245;28;20407;-43
2022/12/31 05:39:47;;;;;;;88.22;36.67;;;;;;;;;;2112884;28;20051;-43
2022/12/31 05:40:48;;;;;;;166.13;44.05;;;;;;;;;;2106789;28;20036;-42
2022/12/31 05:41:49;;;;;;;138.90;47.13;;;;;;;;;;2106905;28;20511;-43
2022/12/31 05:42:50;;;;;;;132.45;38.33;;;;;;;;;;2106805;28;20044;-43
2022/12/31 05:43:51;;;;;;;88.68;39.53;;;;;;;;;;2107201;28;20072;-43
2022/12/31 05:44:52;;;;;;;98.85;41.40;;;;;;;;;;2106796;28;20048;-43
2022/12/31 05:45:53;;;;;;;108.72;46.20;;;;;;;;;;2106875;28;20135;-43
2022/12/31 05:46:54;;;;;;;113.70;39.85;;;;;;;;;;2106785;28;20472;-43
2022/12/31 05:47:56;;;;;;;;;;;;;;;;;;2107577;28;20131;-45
2022/12/31 05:48:57;;;;;;;81.97;32.47;;;;;;;;;;2106663;28;20359;-45
2022/12/31 05:49:58;;;;;;;120.13;45.77;;;;;;;;;;2106798;28;20059;-44
2022/12/31 05:51:00;;;;;;;107.43;42.90;;;;;;;;;;2108418;28;20276;-46
2022/12/31 05:52:01;;;;;;;114.80;41.17;;;;;;;;;;2115220;28;20328;-45
2022/12/31 05:53:02;;;;;;;101.22;45.83;;;;;;;;;;2115371;28;20044;-46
2022/12/31 05:54:03;;;;;;;86.40;35.27;;;;;;;;;;2115103;28;20389;-45
2022/12/31 05:55:04;;;;;;;91.13;46.85;;;;;;;;;;2115234;28;20036;-46
2022/12/31 05:56:06;;;;;;;106.60;40.60;;;;;;;;;;2115495;28;20052;-43
2022/12/31 05:57:07;;;;;;;189.45;51.65;;;;;;;;;;2115039;28;20590;-43
2022/12/31 05:58:08;;;;;;;98.70;40.05;;;;;;;;;;2115204;28;20083;-43
2022/12/31 05:59:09;;;;;;;157.90;53.90;;;;;;;;;;2115008;28;20501;-43
2022/12/31 06:00:10;;;;;;;103.70;41.63;;;;;;;;;;2115352;28;20067;-43
2022/12/31 06:01:12;;;;;;;128.18;44.25;;;;;;;;;;2115155;28;20052;-43
2022/12/31 06:02:13;;;;;;;135.93;42.35;;;;;;;;;;2115248;28;20082;-43
2022/12/31 06:03:14;;;;;;;148.82;49.95;;;;;;;;;;2115034;28;20523;-43
2022/12/31 06:04:15;;;;;;;161.93;45.53;;;;;;;;;;2114907;28;20400;-43
2022/12/31 06:05:16;;;;;;;143.70;40.70;;;;;;;;;;2115331;28;20097;-43
2022/12/31 06:06:26;;;;;;;112.93;44.75;;;;;;;;;;2115425;28;20112;-43
2022/12/31 06:07:28;;;;;;;157.43;48.72;;;;;;;;;;2115305;28;20047;-46
2022/12/31 06:08:29;;;;;;;94.25;45.20;;;;;;;;;;2115170;28;20097;-43
2022/12/31 06:09:30;;;;;;;119.38;49.45;;;;;;;;;;2115078;28;20054;-43
2022/12/31 06:10:31;;;;;;;97.20;39.67;;;;;;;;;;2115001;28;20480;-43
2022/12/31 06:11:32;;;;;;;146.95;51.53;;;;;;;;;;2115010;28;20609;-43